Time;durP1;ratioP1;P1;durP2;ratioP2;P2;SDS_P1;SDS_P2;PMS_P1;PMS_P2;Temp;Humidity;BMP_temperature;BMP_pressure;BME280_temperature;BME280_humidity;BME280_pressure;Samples;Min_cycle;Max_cycle;Signal;HPM_P1;HPM_P2
2022/02/04 03:45:56;;;;;;;21.80;8.77;;;5.40;91.80;;;;;;5407197;24;20195;-84
2022/02/04 03:48:22;;;;;;;22.50;7.78;;;5.30;91.70;;;;;;4747016;30;20048;-83
2022/02/04 03:50:48;;;;;;;25.00;9.65;;;5.30;91.70;;;;;;4736245;30;20101;-83
2022/02/04 03:53:15;;;;;;;25.02;10.65;;;5.30;91.60;;;;;;4751846;30;20044;-83
2022/02/04 03:55:42;;;;;;;28.70;9.77;;;5.30;91.70;;;;;;4737024;30;20036;-82
2022/02/04 03:58:11;;;;;;;26.85;9.45;;;5.30;91.70;;;;;;4741681;30;20032;-83
2022/02/04 04:00:37;;;;;;;32.08;11.20;;;5.20;91.60;;;;;;4742722;30;20055;-82
2022/02/04 04:03:04;;;;;;;34.17;11.05;;;5.20;91.70;;;;;;4777882;30;20043;-82
2022/02/04 04:05:30;;;;;;;32.28;10.82;;;5.20;92.10;;;;;;4758283;30;20047;-82
2022/02/04 04:07:57;;;;;;;27.73;11.30;;;5.10;91.80;;;;;;4733952;30;20107;-83
2022/02/04 04:10:26;;;;;;;30.17;11.40;;;5.10;91.80;;;;;;4739578;30;20347;-83
2022/02/04 04:12:54;;;;;;;35.28;13.55;;;5.10;91.80;;;;;;4751400;30;20042;-82
2022/02/04 04:15:20;;;;;;;34.00;13.48;;;5.10;91.90;;;;;;4739088;30;20036;-82
2022/02/04 04:17:46;;;;;;;30.58;12.88;;;5.10;92.00;;;;;;4740114;30;20039;-83
2022/02/04 04:20:18;;;;;;;32.17;13.45;;;5.10;92.30;;;;;;4741090;30;20059;-83
2022/02/04 04:22:44;;;;;;;26.77;12.02;;;5.10;92.40;;;;;;4737347;30;20040;-83
2022/02/04 04:25:11;;;;;;;30.17;11.30;;;5.10;92.30;;;;;;4751417;30;20055;-83
2022/02/04 04:27:38;;;;;;;;;;;5.10;92.30;;;;;;4736440;30;20045;-83
2022/02/04 04:30:05;;;;;;;24.83;10.98;;;5.00;92.40;;;;;;4735811;30;19914;-83
2022/02/04 04:32:31;;;;;;;36.63;14.13;;;5.00;92.40;;;;;;4745538;30;20040;-82
2022/02/04 04:34:56;;;;;;;36.55;13.90;;;5.00;92.60;;;;;;4745088;30;20077;-83
2022/02/04 04:37:24;;;;;;;33.05;11.63;;;5.00;92.50;;;;;;4736384;30;20036;-83
2022/02/04 04:43:11;;;;;;;28.02;11.05;;;5.00;92.60;;;;;;4744570;30;19945;-83
2022/02/04 04:45:44;;;;;;;26.67;10.50;;;4.90;92.50;;;;;;4763329;30;20073;-83
2022/02/04 05:26:51;;;;;;;21.23;7.22;;;5.00;93.70;;;;;;4739938;30;20063;-83
2022/02/04 05:29:16;;;;;;;15.15;7.47;;;4.90;93.90;;;;;;4744965;30;20040;-83
2022/02/04 05:31:42;;;;;;;22.52;7.47;;;4.90;94.00;;;;;;4741878;30;20039;-82
2022/02/04 05:34:09;;;;;;;22.60;7.70;;;4.90;93.90;;;;;;4745092;30;20244;-83
2022/02/04 05:36:39;;;;;;;23.83;7.60;;;5.00;93.80;;;;;;4730571;30;20420;-82
2022/02/04 05:39:05;;;;;;;13.88;6.80;;;5.00;93.70;;;;;;4728541;30;20044;-83
2022/02/04 05:41:35;;;;;;;15.02;7.10;;;5.00;93.70;;;;;;4725034;30;20040;-83
2022/02/04 05:44:05;;;;;;;19.10;6.90;;;5.10;93.70;;;;;;4762821;30;20317;-84
2022/02/04 05:46:37;;;;;;;29.65;7.43;;;5.20;93.60;;;;;;4738095;30;20060;-84
2022/02/04 05:49:03;;;;;;;20.58;6.63;;;5.20;93.50;;;;;;4740807;30;20066;-83
2022/02/04 05:51:46;;;;;;;18.15;6.60;;;5.20;93.50;;;;;;4727555;30;20058;-83
2022/02/04 05:54:22;;;;;;;24.38;7.80;;;5.20;93.60;;;;;;4749918;30;20116;-83
2022/02/04 06:22:46;;;;;;;26.95;9.13;;;5.20;94.90;;;;;;4713753;30;20174;-82
2022/02/04 06:25:12;;;;;;;19.40;7.72;;;5.20;94.80;;;;;;4700822;30;20045;-82
2022/02/04 06:27:38;;;;;;;19.50;7.72;;;5.30;94.70;;;;;;4714346;30;20063;-81
2022/02/04 06:30:05;;;;;;;21.70;8.73;;;5.30;94.70;;;;;;4742699;30;20029;-82
2022/02/04 06:32:34;;;;;;;23.45;8.10;;;5.30;94.60;;;;;;4721846;30;20040;-81
2022/02/04 06:35:00;;;;;;;17.48;8.48;;;5.30;94.70;;;;;;4711300;30;20476;-83
2022/02/04 06:37:26;;;;;;;17.27;7.63;;;5.30;94.80;;;;;;4711393;30;20119;-83
2022/02/04 06:39:52;;;;;;;16.23;7.30;;;5.30;94.70;;;;;;4690893;30;20033;-83
2022/02/04 06:42:25;;;;;;;18.35;7.45;;;5.30;94.60;;;;;;4713192;30;20075;-83
2022/02/04 06:44:51;;;;;;;13.60;6.50;;;5.30;94.70;;;;;;4719856;30;20094;-83
2022/02/04 06:47:19;;;;;;;21.52;8.35;;;5.30;95.00;;;;;;4745337;30;20102;-83
2022/02/04 06:49:47;;;;;;;21.67;8.05;;;5.30;94.90;;;;;;4728952;30;20060;-83
2022/02/04 06:52:14;;;;;;;20.27;7.35;;;5.30;95.30;;;;;;4749277;30;20052;-81
2022/02/04 06:54:40;;;;;;;19.35;8.18;;;5.30;95.10;;;;;;4742582;30;20347;-82
2022/02/04 06:57:06;;;;;;;18.90;7.28;;;5.30;95.20;;;;;;4730305;30;20029;-82
2022/02/04 06:59:33;;;;;;;20.87;8.77;;;5.20;95.20;;;;;;4714559;30;20205;-82
2022/02/04 07:01:59;;;;;;;14.13;7.32;;;5.20;95.40;;;;;;4730187;30;20036;-82
2022/02/04 07:04:30;;;;;;;23.67;9.13;;;5.20;95.20;;;;;;4717559;30;20348;-83
2022/02/04 07:06:58;;;;;;;22.45;8.80;;;5.20;95.30;;;;;;4729237;30;20051;-83
2022/02/04 07:19:56;;;;;;;20.63;7.47;;;5.40;95.00;;;;;;4744892;30;20044;-81
2022/02/04 07:22:30;;;;;;;14.82;6.47;;;5.50;94.70;;;;;;4765189;30;20036;-83
2022/02/04 07:24:59;;;;;;;23.27;7.13;;;5.50;94.60;;;;;;4732605;30;20032;-82
2022/02/04 07:27:26;;;;;;;21.48;6.95;;;5.60;94.60;;;;;;4731248;30;20060;-81
2022/02/04 07:29:53;;;;;;;;;;;5.60;94.30;;;;;;4747244;30;20040;-83
2022/02/04 07:32:38;;;;;;;15.00;6.25;;;5.60;94.30;;;;;;4732363;30;19986;-82
2022/02/04 07:43:17;;;;;;;14.98;7.15;;;5.70;94.50;;;;;;4734717;30;20040;-82
2022/02/04 07:45:43;;;;;;;17.48;8.57;;;5.80;94.50;;;;;;4765428;30;20113;-83
2022/02/04 07:48:09;;;;;;;21.95;9.35;;;5.90;94.70;;;;;;4750047;30;20048;-83
2022/02/04 07:50:34;;;;;;;23.63;7.97;;;6.00;94.30;;;;;;4761807;30;20032;-82
2022/02/04 07:53:00;;;;;;;17.45;7.38;;;6.00;94.20;;;;;;4761940;30;20047;-83
2022/02/04 07:55:26;;;;;;;18.45;6.85;;;6.00;94.00;;;;;;4719004;30;20332;-81
2022/02/04 07:57:52;;;;;;;20.92;7.78;;;5.90;93.80;;;;;;4758783;30;20035;-83
2022/02/04 08:00:19;;;;;;;20.50;7.78;;;5.90;93.60;;;;;;4719787;30;20047;-82
2022/02/04 08:02:46;;;;;;;26.58;8.25;;;5.90;94.00;;;;;;4759845;30;20416;-83
2022/02/04 08:05:16;;;;;;;24.58;8.30;;;6.00;94.00;;;;;;4738704;30;20037;-83
2022/02/04 08:07:53;;;;;;;21.02;7.35;;;6.00;94.00;;;;;;4728735;30;20071;-83
2022/02/04 08:13:26;;;;;;;19.25;7.90;;;6.00;93.30;;;;;;4728408;30;20044;-82
2022/02/04 08:56:56;;;;;;;19.52;9.25;;;7.40;92.10;;;;;;4706173;30;20064;-80
2022/02/04 09:02:16;;;;;;;20.23;9.55;;;7.50;91.80;;;;;;4703586;30;20065;-81
2022/02/04 09:04:46;;;;;;;22.92;9.23;;;7.60;91.80;;;;;;4669345;30;20042;-81
2022/02/04 09:07:14;;;;;;;21.27;8.73;;;7.70;91.70;;;;;;4681015;30;20247;-81
2022/02/04 09:12:22;;;;;;;23.70;10.75;;;7.90;91.40;;;;;;4686539;30;20045;-80
2022/02/04 09:20:02;;;;;;;24.48;10.23;;;8.40;90.60;;;;;;4675662;30;20065;-80
2022/02/04 09:22:47;;;;;;;24.95;9.40;;;8.40;90.20;;;;;;4680250;30;20291;-80
2022/02/04 09:25:12;;;;;;;24.48;10.75;;;8.40;90.70;;;;;;4749293;30;20097;-80
2022/02/04 09:27:39;;;;;;;26.50;10.63;;;8.60;90.70;;;;;;4735233;30;20059;-80
2022/02/04 09:30:07;;;;;;;17.35;9.65;;;8.80;90.60;;;;;;4735229;30;20325;-80
2022/02/04 09:32:36;;;;;;;25.20;10.20;;;9.10;90.20;;;;;;4742190;30;20336;-81
2022/02/04 09:35:04;;;;;;;26.15;10.05;;;9.30;89.70;;;;;;4744998;30;20078;-79
2022/02/04 09:37:30;;;;;;;28.30;10.25;;;9.60;88.50;;;;;;4774656;30;20020;-78
2022/02/04 09:39:56;;;;;;;25.85;10.40;;;9.70;86.60;;;;;;4754390;30;20036;-80
2022/02/04 09:42:22;;;;;;;18.67;9.57;;;9.90;87.90;;;;;;4735686;30;20332;-80
2022/02/04 09:44:49;;;;;;;27.17;10.57;;;10.10;87.10;;;;;;4765815;30;20043;-81
2022/02/04 09:47:26;;;;;;;33.83;11.33;;;10.30;85.80;;;;;;4723238;30;20087;-80
2022/02/04 09:49:58;;;;;;;20.20;8.90;;;10.50;84.50;;;;;;4760530;30;20344;-81
2022/02/04 10:17:09;;;;;;;20.98;10.85;;;12.20;76.90;;;;;;4724370;30;20064;-82
2022/02/04 10:22:26;;;;;;;23.23;10.75;;;12.50;77.20;;;;;;4720429;30;20059;-82
2022/02/04 10:24:57;;;;;;;28.65;10.00;;;12.60;76.40;;;;;;4713789;30;20036;-82
2022/02/04 10:27:25;;;;;;;20.10;10.07;;;12.70;75.50;;;;;;4702622;30;20067;-82
2022/02/04 10:29:50;;;;;;;;;;;12.50;75.40;;;;;;4697191;30;20047;-81
2022/02/04 10:32:16;;;;;;;18.27;10.00;;;12.30;76.40;;;;;;4725317;30;19918;-82
2022/02/04 10:34:58;;;;;;;24.60;10.10;;;12.30;77.30;;;;;;4711460;30;20355;-82
2022/02/04 10:37:28;;;;;;;19.27;9.35;;;12.30;77.20;;;;;;4686728;30;20046;-82
2022/02/04 10:59:04;;;;;;;30.50;11.43;;;12.10;76.60;;;;;;4744307;30;20166;-82
2022/02/04 11:04:05;;;;;;;21.48;9.88;;;11.90;77.00;;;;;;4748218;30;20050;-81
2022/02/04 11:09:08;;;;;;;22.50;10.80;;;11.70;78.60;;;;;;4754652;30;20036;-81
2022/02/04 11:11:47;;;;;;;24.83;9.88;;;11.60;78.70;;;;;;4746563;30;20078;-81
2022/02/04 11:33:54;;;;;;;22.42;10.00;;;11.60;80.60;;;;;;4670541;30;20051;-81
2022/02/04 11:51:30;;;;;;;30.33;10.48;;;12.20;79.00;;;;;;4649795;30;20439;-81
2022/02/04 11:54:30;;;;;;;21.75;11.30;;;12.30;78.70;;;;;;4630072;30;20035;-81
2022/02/04 11:56:56;;;;;;;17.67;10.07;;;12.40;79.30;;;;;;4629374;31;20119;-82
2022/02/04 11:59:39;;;;;;;15.05;7.88;;;12.40;78.20;;;;;;4623666;30;20039;-82
2022/02/04 12:02:26;;;;;;;17.85;9.32;;;12.30;76.50;;;;;;4624592;31;20079;-81
2022/02/04 12:05:11;;;;;;;12.45;8.25;;;12.20;76.10;;;;;;4669766;30;20038;-82
2022/02/04 12:07:49;;;;;;;18.20;7.50;;;12.20;75.80;;;;;;4660609;30;20046;-81
2022/02/04 12:10:20;;;;;;;9.38;7.43;;;12.20;76.90;;;;;;4664642;30;20058;-81
2022/02/04 12:12:55;;;;;;;11.00;7.63;;;12.40;77.20;;;;;;4636124;30;20421;-81
2022/02/04 12:15:32;;;;;;;11.88;7.35;;;12.50;75.50;;;;;;4632165;30;20062;-82
2022/02/04 12:18:06;;;;;;;16.23;8.10;;;12.50;75.20;;;;;;4666628;30;20053;-81
2022/02/04 12:20:53;;;;;;;11.07;8.00;;;12.50;75.10;;;;;;4654694;30;20077;-81
2022/02/04 12:23:28;;;;;;;8.93;7.15;;;12.40;75.00;;;;;;4669069;30;20090;-81
2022/02/04 12:26:01;;;;;;;14.95;7.72;;;12.30;76.10;;;;;;4647008;30;20362;-81
2022/02/04 12:29:07;;;;;;;13.27;7.35;;;12.20;76.20;;;;;;4715502;30;20083;-81
2022/02/04 12:31:35;;;;;;;14.30;7.65;;;12.30;76.50;;;;;;4737296;30;20070;-81
2022/02/04 12:34:17;;;;;;;14.95;8.18;;;12.30;76.20;;;;;;4741991;30;20059;-81
2022/02/04 12:36:57;;;;;;;12.20;8.10;;;12.40;75.60;;;;;;4742596;30;20041;-83
2022/02/04 12:39:25;;;;;;;10.20;6.78;;;12.40;76.30;;;;;;4741918;30;20032;-83
2022/02/04 12:41:57;;;;;;;9.73;6.63;;;12.30;75.60;;;;;;4737460;30;20075;-83
2022/02/04 12:44:33;;;;;;;12.35;7.32;;;12.20;76.20;;;;;;4740415;30;20052;-83
2022/02/04 12:47:01;;;;;;;12.05;6.60;;;12.10;76.20;;;;;;4725659;30;20056;-82
2022/02/04 12:49:29;;;;;;;10.93;7.13;;;12.00;76.50;;;;;;4737635;30;20107;-83
2022/02/04 12:55:04;;;;;;;8.15;5.70;;;11.90;76.70;;;;;;4749980;30;20044;-83
2022/02/04 13:03:16;;;;;;;10.68;6.18;;;12.00;75.60;;;;;;4748964;30;20728;-83
2022/02/04 13:11:08;;;;;;;14.63;5.45;;;11.90;76.00;;;;;;4746087;30;20075;-82
2022/02/04 13:16:08;;;;;;;7.82;5.05;;;11.80;75.60;;;;;;4731733;30;20214;-83
2022/02/04 13:18:34;;;;;;;7.63;4.93;;;11.80;75.80;;;;;;4744919;30;20102;-84
2022/02/04 13:21:01;;;;;;;8.23;4.55;;;11.70;75.90;;;;;;4712405;30;20051;-83
2022/02/04 13:23:31;;;;;;;9.35;4.57;;;11.70;75.90;;;;;;4751617;30;20048;-83
2022/02/04 13:26:02;;;;;;;9.88;4.97;;;11.70;76.40;;;;;;4744565;30;20035;-83
2022/02/04 13:28:34;;;;;;;11.13;4.80;;;11.70;75.90;;;;;;4744066;30;20039;-83
2022/02/04 13:31:12;;;;;;;5.63;3.80;;;11.70;75.90;;;;;;4724323;30;20274;-83
2022/02/04 13:33:38;;;;;;;11.02;3.70;;;11.80;75.90;;;;;;4743323;30;20078;-84
2022/02/04 13:38:58;;;;;;;5.13;3.38;;;12.10;73.60;;;;;;4742632;30;20036;-83
2022/02/04 13:47:06;;;;;;;5.15;3.20;;;12.30;71.30;;;;;;4749706;30;20056;-84
2022/02/04 13:52:56;;;;;;;4.45;3.13;;;12.20;71.30;;;;;;4745935;30;20119;-82
2022/02/04 13:55:40;;;;;;;4.53;3.20;;;12.10;71.30;;;;;;4745942;30;20332;-83
2022/02/04 14:01:10;;;;;;;6.25;3.08;;;12.20;70.50;;;;;;4739194;30;20082;-82
2022/02/04 14:03:43;;;;;;;5.85;3.42;;;12.20;70.90;;;;;;4728690;30;20386;-84
2022/02/04 14:06:14;;;;;;;5.70;3.88;;;12.10;71.20;;;;;;4744640;30;20357;-83
2022/02/04 14:11:41;;;;;;;6.03;4.07;;;11.90;72.30;;;;;;4721893;30;20052;-84
2022/02/04 14:14:11;;;;;;;5.53;3.67;;;11.90;72.50;;;;;;4723038;30;20096;-83
2022/02/04 14:16:39;;;;;;;4.90;3.25;;;11.90;73.30;;;;;;4720255;30;20273;-83
2022/02/04 14:19:05;;;;;;;4.90;3.50;;;11.80;73.30;;;;;;4709762;30;20040;-84
2022/02/04 14:21:35;;;;;;;8.90;4.03;;;11.80;73.70;;;;;;4711171;30;20037;-84
2022/02/04 14:24:08;;;;;;;7.00;3.88;;;11.80;73.80;;;;;;4724875;30;20055;-84
2022/02/04 14:26:38;;;;;;;6.72;4.15;;;11.80;74.10;;;;;;4717909;30;20048;-83
2022/02/04 14:34:41;;;;;;;6.95;3.95;;;11.80;74.00;;;;;;4705308;30;20033;-84
2022/02/04 14:37:05;;;;;;;9.05;5.40;;;11.80;74.20;;;;;;4711170;30;20032;-84
2022/02/04 15:01:24;;;;;;;9.27;6.07;;;11.80;75.10;;;;;;4749362;30;20284;-84
2022/02/04 15:04:03;;;;;;;12.60;6.53;;;11.80;74.90;;;;;;4753112;30;20032;-84
2022/02/04 15:06:35;;;;;;;10.02;6.40;;;11.80;74.90;;;;;;4744221;30;20086;-83
2022/02/04 15:09:06;;;;;;;8.45;5.57;;;11.80;74.50;;;;;;4740997;30;20025;-84
2022/02/04 15:11:34;;;;;;;9.20;5.93;;;11.80;74.80;;;;;;4745753;30;20044;-84
2022/02/04 15:14:03;;;;;;;11.25;5.90;;;11.80;75.00;;;;;;4714300;30;20028;-83
2022/02/04 15:16:29;;;;;;;8.52;6.13;;;11.80;75.10;;;;;;4727805;30;20068;-83
2022/02/04 15:18:55;;;;;;;10.13;6.13;;;11.80;75.10;;;;;;4713732;30;20041;-84
2022/02/04 15:21:22;;;;;;;10.93;6.15;;;11.80;75.00;;;;;;4729786;30;20036;-85
2022/02/04 15:23:52;;;;;;;11.02;6.00;;;11.70;75.10;;;;;;4729077;30;20336;-83
2022/02/04 15:26:22;;;;;;;12.85;7.18;;;11.60;75.40;;;;;;4742648;30;20036;-84
2022/02/04 15:28:55;;;;;;;8.40;5.57;;;11.50;75.70;;;;;;4740078;30;20033;-84
2022/02/04 15:33:54;;;;;;;10.35;6.65;;;11.30;76.40;;;;;;4742143;30;20020;-82
2022/02/04 15:36:35;;;;;;;13.40;9.15;;;11.30;76.60;;;;;;4726554;30;20055;-84
2022/02/04 15:39:04;;;;;;;11.55;7.53;;;11.20;76.80;;;;;;4737100;30;20028;-84
2022/02/04 15:41:32;;;;;;;16.65;8.23;;;11.20;77.10;;;;;;4755669;30;20032;-84
2022/02/04 15:44:03;;;;;;;10.07;5.80;;;11.00;77.40;;;;;;4722164;30;20039;-84
2022/02/04 15:52:42;;;;;;;10.95;6.15;;;10.90;78.10;;;;;;4739000;30;20040;-84
2022/02/04 16:05:08;;;;;;;8.02;5.90;;;10.50;79.50;;;;;;4747586;30;20152;-82
2022/02/04 16:07:34;;;;;;;11.38;6.68;;;10.40;79.80;;;;;;4724154;30;20052;-84
2022/02/04 16:13:09;;;;;;;12.52;6.63;;;10.40;80.30;;;;;;4734106;30;20132;-83
2022/02/04 16:15:56;;;;;;;10.30;6.30;;;10.30;80.40;;;;;;4742535;30;20045;-84
2022/02/04 16:18:26;;;;;;;10.38;7.07;;;10.30;80.10;;;;;;4755304;30;20115;-83
2022/02/04 16:21:12;;;;;;;13.18;8.05;;;10.30;80.20;;;;;;4733338;30;20092;-84
2022/02/04 16:28:48;;;;;;;13.60;7.55;;;10.30;79.80;;;;;;4746816;30;20230;-84
2022/02/04 16:31:17;;;;;;;13.60;8.60;;;10.30;80.30;;;;;;4717128;30;20173;-83
2022/02/04 16:33:45;;;;;;;16.38;9.50;;;10.30;80.40;;;;;;4745927;30;20057;-84
2022/02/04 16:36:15;;;;;;;16.52;9.85;;;10.30;80.60;;;;;;4745515;30;20071;-83
2022/02/04 16:38:46;;;;;;;17.55;10.55;;;10.30;80.60;;;;;;4733207;30;20247;-84
2022/02/04 16:41:15;;;;;;;24.35;12.23;;;10.30;80.70;;;;;;4733466;30;20032;-85
2022/02/04 16:43:40;;;;;;;18.25;9.95;;;10.30;80.90;;;;;;4721383;30;20352;-84
2022/02/04 16:46:07;;;;;;;14.75;8.35;;;10.20;81.10;;;;;;4721666;30;20115;-84
2022/02/04 16:48:37;;;;;;;11.30;8.13;;;10.20;81.20;;;;;;4730152;30;20331;-84
2022/02/04 16:51:05;;;;;;;11.32;7.90;;;10.20;81.40;;;;;;4709922;30;20344;-83
2022/02/04 16:53:33;;;;;;;12.55;7.63;;;10.20;81.60;;;;;;4730485;30;20052;-83
2022/02/04 16:55:59;;;;;;;13.73;7.75;;;10.20;81.90;;;;;;4734839;30;20028;-84
2022/02/04 16:58:25;;;;;;;13.73;7.72;;;10.20;82.00;;;;;;4725085;30;20079;-84
2022/02/04 17:00:51;;;;;;;15.10;8.45;;;10.20;82.00;;;;;;4725546;30;20287;-84
2022/02/04 17:03:17;;;;;;;13.48;8.13;;;10.30;82.10;;;;;;4714679;30;20040;-84
2022/02/04 17:08:14;;;;;;;18.20;11.68;;;10.30;81.90;;;;;;4730780;30;20059;-84
2022/02/04 17:10:44;;;;;;;17.05;11.35;;;10.40;82.00;;;;;;4721973;30;20091;-84
2022/02/04 17:13:11;;;;;;;15.63;10.23;;;10.30;82.00;;;;;;4727429;30;20040;-84
2022/02/04 17:15:39;;;;;;;15.60;9.98;;;10.40;82.00;;;;;;4721343;30;20056;-84
2022/02/04 17:18:07;;;;;;;13.25;9.07;;;10.30;82.10;;;;;;4738293;30;20524;-82
2022/02/04 17:20:34;;;;;;;14.93;8.65;;;10.30;82.10;;;;;;4733690;30;20036;-85
2022/02/04 17:23:03;;;;;;;19.23;9.43;;;10.30;82.30;;;;;;4736292;30;20044;-83
2022/02/04 17:25:34;;;;;;;14.00;9.15;;;10.20;82.40;;;;;;4733912;30;20353;-84
2022/02/04 17:28:00;;;;;;;21.70;9.07;;;10.20;82.60;;;;;;4719332;30;20052;-84
2022/02/04 17:30:26;;;;;;;13.32;8.05;;;10.20;82.70;;;;;;4736938;30;20086;-84
2022/02/04 17:32:53;;;;;;;17.37;8.73;;;10.10;82.80;;;;;;4710289;30;20071;-83
2022/02/04 17:35:20;;;;;;;14.55;9.48;;;10.00;83.30;;;;;;4744005;30;20036;-84
2022/02/04 17:37:47;;;;;;;16.95;9.50;;;9.90;83.60;;;;;;4720951;30;20040;-84
2022/02/04 17:40:15;;;;;;;15.23;9.40;;;9.90;83.60;;;;;;4728233;30;20229;-85
2022/02/04 17:42:43;;;;;;;14.43;9.48;;;9.90;83.60;;;;;;4716976;30;20056;-84
2022/02/04 17:45:10;;;;;;;13.10;9.15;;;9.80;84.40;;;;;;4729471;30;20035;-84
2022/02/04 17:47:37;;;;;;;15.82;9.50;;;9.80;83.90;;;;;;4726796;30;20064;-84
2022/02/04 17:50:12;;;;;;;19.98;11.57;;;9.70;84.20;;;;;;4739063;30;20036;-83
2022/02/04 17:55:23;;;;;;;23.27;11.88;;;9.60;84.80;;;;;;4750646;30;20040;-85
2022/02/04 17:57:55;;;;;;;18.15;10.88;;;9.60;84.80;;;;;;4743968;30;20052;-85
2022/02/04 18:00:56;;;;;;;19.17;11.18;;;9.60;85.30;;;;;;4734854;30;20365;-84
2022/02/04 18:06:07;;;;;;;21.05;12.23;;;9.60;85.20;;;;;;4732495;30;20340;-84
2022/02/04 18:08:33;;;;;;;18.85;11.50;;;9.50;85.40;;;;;;4727597;30;20044;-84
2022/02/04 18:11:03;;;;;;;19.75;12.77;;;9.50;85.70;;;;;;4734462;30;20577;-85
2022/02/04 18:13:30;;;;;;;28.83;13.55;;;9.40;85.70;;;;;;4732687;30;20366;-83
2022/02/04 18:15:56;;;;;;;;;;;9.40;85.70;;;;;;4736807;30;20082;-83
2022/02/04 18:18:23;;;;;;;26.23;14.90;;;9.40;85.60;;;;;;4724521;30;19953;-83
2022/02/04 18:20:51;;;;;;;27.85;15.70;;;9.30;85.60;;;;;;4723307;30;20074;-83
2022/02/04 18:23:20;;;;;;;26.13;17.58;;;9.20;86.00;;;;;;4724523;30;20048;-86
2022/02/04 18:25:51;;;;;;;26.45;16.75;;;9.10;86.10;;;;;;4744866;30;20048;-83
2022/02/04 18:28:18;;;;;;;27.08;16.13;;;9.10;86.50;;;;;;4731207;30;20428;-84
2022/02/04 18:30:44;;;;;;;23.48;16.38;;;9.00;86.80;;;;;;4722358;30;20338;-83
2022/02/04 18:33:11;;;;;;;22.95;15.55;;;8.90;86.70;;;;;;4736153;30;20154;-83
2022/02/04 18:35:38;;;;;;;26.38;14.77;;;8.80;86.60;;;;;;4740548;30;20081;-84
2022/02/04 18:38:19;;;;;;;18.80;12.63;;;8.70;86.70;;;;;;4736607;30;20055;-84
2022/02/04 18:41:22;;;;;;;21.75;13.65;;;8.60;86.90;;;;;;4711738;30;20116;-84
2022/02/04 18:43:57;;;;;;;22.63;12.13;;;8.50;87.30;;;;;;4731274;30;20403;-84
2022/02/04 18:52:04;;;;;;;25.13;11.77;;;8.20;88.80;;;;;;4724287;30;20094;-84
2022/02/04 18:57:24;;;;;;;17.30;12.38;;;8.00;89.10;;;;;;4752819;30;20363;-84
2022/02/04 19:02:41;;;;;;;22.23;12.90;;;7.80;89.70;;;;;;4724365;30;20052;-84
2022/02/04 19:05:17;;;;;;;21.02;13.25;;;7.80;90.30;;;;;;4707457;30;20113;-84
2022/02/04 19:07:57;;;;;;;22.55;13.95;;;7.70;90.40;;;;;;4725236;30;20049;-84
2022/02/04 19:10:23;;;;;;;24.67;13.15;;;7.70;90.40;;;;;;4707113;30;20120;-84
2022/02/04 19:12:57;;;;;;;21.50;12.77;;;7.60;90.50;;;;;;4709304;30;20045;-84
2022/02/04 19:18:05;;;;;;;27.25;16.48;;;7.60;90.90;;;;;;4737893;30;20067;-84
2022/02/04 19:20:40;;;;;;;30.40;17.08;;;7.60;90.90;;;;;;4741830;30;20112;-84
2022/02/04 19:23:09;;;;;;;35.97;18.35;;;7.50;90.90;;;;;;4705283;30;20043;-84
2022/02/04 19:25:39;;;;;;;35.10;17.92;;;7.40;91.10;;;;;;4704841;30;20057;-84
2022/02/04 19:28:07;;;;;;;31.98;15.95;;;7.40;91.20;;;;;;4722684;30;20056;-84
2022/02/04 19:30:35;;;;;;;25.10;14.77;;;7.30;91.10;;;;;;4713646;30;20076;-84
2022/02/04 19:33:01;;;;;;;28.88;14.77;;;7.20;91.20;;;;;;4693340;30;20049;-84
2022/02/04 19:35:27;;;;;;;36.70;14.65;;;7.20;91.10;;;;;;4670319;30;20046;-84
2022/02/04 19:37:53;;;;;;;37.65;14.75;;;7.20;91.20;;;;;;4680950;30;20063;-84
2022/02/04 19:40:19;;;;;;;22.98;14.50;;;7.10;91.10;;;;;;4687469;30;20051;-84
2022/02/04 19:42:48;;;;;;;28.58;14.48;;;7.00;91.20;;;;;;4745436;30;20052;-84
2022/02/04 19:45:20;;;;;;;33.53;15.02;;;7.00;91.50;;;;;;4723160;30;20111;-84
2022/02/04 19:47:51;;;;;;;28.13;14.52;;;6.90;91.20;;;;;;4725666;30;20118;-83
2022/02/04 20:06:53;;;;;;;26.83;14.45;;;6.60;91.40;;;;;;4733938;30;20229;-83
2022/02/04 20:07:13;;;;;;;33.47;15.60;;;6.30;91.80;;;;;;4730164;30;20036;-82
2022/02/04 20:25:35;;;;;;;25.27;14.27;;;5.80;92.70;;;;;;4742015;30;20534;-84
2022/02/04 20:28:07;;;;;;;31.02;16.63;;;5.70;92.90;;;;;;4724921;30;20037;-85
2022/02/04 20:30:33;;;;;;;26.75;15.13;;;5.60;92.90;;;;;;4699926;30;20051;-84
2022/02/04 20:32:59;;;;;;;34.05;19.02;;;5.60;93.00;;;;;;4728076;30;20049;-84
2022/02/04 20:35:24;;;;;;;37.72;19.38;;;5.60;93.10;;;;;;4715411;30;20068;-84
2022/02/04 20:37:51;;;;;;;38.05;20.00;;;5.60;93.20;;;;;;4712891;30;20670;-84
2022/02/04 20:40:24;;;;;;;36.20;17.90;;;5.50;93.30;;;;;;4741521;30;20056;-83
2022/02/04 20:42:50;;;;;;;34.25;17.50;;;5.50;93.30;;;;;;4713494;30;20240;-83
2022/02/04 20:45:16;;;;;;;32.10;18.88;;;5.40;93.40;;;;;;4730948;30;20036;-83
2022/02/04 20:47:44;;;;;;;44.35;20.58;;;5.40;93.40;;;;;;4695476;30;20083;-84
2022/02/04 20:50:11;;;;;;;42.60;20.20;;;5.40;93.30;;;;;;4700724;30;20049;-84
2022/02/04 20:52:37;;;;;;;41.53;20.07;;;5.30;93.20;;;;;;4724185;30;20325;-84
2022/02/04 20:55:07;;;;;;;41.55;21.23;;;5.20;93.30;;;;;;4729253;30;20035;-84
2022/02/04 20:57:35;;;;;;;40.20;20.23;;;5.20;93.40;;;;;;4712248;30;20432;-82
2022/02/04 21:00:04;;;;;;;41.42;21.15;;;5.20;93.40;;;;;;4720756;30;20336;-83
